| time (UTC) | temp C | wind direction | speed KPH | gust KPH | rain 1hr cm | rain 24hr cm | rain mn cm | humidity % | barometer mb |
| 20260505071439 | 4 | 29 | 1.6 | 8.0 | 0.00 | 0.08 | 0.03 | 91 | 1011.9 |
| 20260505070939 | 4 | 29 | 1.6 | 8.0 | 0.03 | 0.08 | 0.03 | 91 | 1012.1 |
| 20260505070438 | 4 | 39 | 0.0 | 0.0 | 0.03 | 0.08 | 0.03 | 91 | 1012.1 |
| 20260505065940 | 4 | 39 | 0.0 | 0.0 | 0.03 | 0.08 | 0.03 | 91 | 1012.1 |
| 20260505065438 | 5 | 40 | 0.0 | 0.0 | 0.03 | 0.08 | 0.03 | 91 | 1012.1 |
| 20260505064436 | 5 | 63 | 0.0 | 0.0 | 0.03 | 0.08 | 0.03 | 90 | 1011.8 |
| 20260505062934 | 5 | 63 | 4.8 | 11.3 | 0.05 | 0.08 | 0.03 | 90 | 1011.7 |
| 20260505062418 | 5 | 78 | 3.2 | 11.3 | 0.05 | 0.08 | 0.03 | 89 | 1011.7 |
| 20260505061920 | 5 | 35 | 1.6 | 8.0 | 0.05 | 0.08 | 0.03 | 89 | 1011.9 |
| 20260505061420 | 5 | 35 | 1.6 | 8.0 | 0.05 | 0.08 | 0.03 | 89 | 1012.2 |
| 20260505060919 | 5 | 34 | 6.4 | 17.7 | 0.03 | 0.05 | 0.00 | 89 | 1012.1 |
| 20260505060420 | 5 | 28 | 9.7 | 17.7 | 0.03 | 0.05 | 0.00 | 88 | 1012.1 |
| 20260505055916 | 5 | 24 | 8.0 | 16.1 | 0.03 | 0.05 | 0.05 | 88 | 1012.2 |
| 20260505055417 | 5 | 5 | 9.7 | 16.1 | 0.03 | 0.05 | 0.05 | 87 | 1012.4 |
| 20260505054906 | 5 | 26 | 8.0 | 16.1 | 0.03 | 0.05 | 0.05 | 86 | 1012.4 |
| 20260505054407 | 5 | 11 | 4.8 | 14.5 | 0.03 | 0.05 | 0.05 | 85 | 1012.4 |
| 20260505053906 | 5 | 5 | 6.4 | 14.5 | 0.00 | 0.03 | 0.03 | 84 | 1012.4 |
| 20260505053408 | 5 | 351 | 9.7 | 17.7 | 0.00 | 0.03 | 0.03 | 82 | 1012.4 |
| 20260505052907 | 5 | 355 | 9.7 | 17.7 | 0.00 | 0.03 | 0.03 | 81 | 1012.3 |
| 20260505041347 | 5 | 56 | 8.0 | 17.7 | 0.00 | 0.03 | 0.03 | 81 | 1011.2 |
| 20260505040847 | 5 | 35 | 11.3 | 19.3 | 0.00 | 0.03 | 0.03 | 81 | 1011.2 |
| 20260505040346 | 5 | 35 | 12.9 | 20.9 | 0.00 | 0.03 | 0.03 | 81 | 1011.1 |
| 20260505035846 | 5 | 27 | 14.5 | 22.5 | 0.00 | 0.03 | 0.03 | 81 | 1011.0 |
| 20260505035347 | 6 | 22 | 16.1 | 24.1 | 0.00 | 0.03 | 0.03 | 81 | 1011.3 |
| 20260505034845 | 6 | 32 | 16.1 | 24.1 | 0.00 | 0.03 | 0.03 | 80 | 1011.3 |
| 20260505034348 | 6 | 37 | 17.7 | 30.6 | 0.00 | 0.03 | 0.03 | 80 | 1011.5 |
| 20260505033845 | 6 | 35 | 19.3 | 30.6 | 0.00 | 0.03 | 0.03 | 80 | 1011.6 |
| 20260505033344 | 6 | 18 | 17.7 | 25.7 | 0.00 | 0.03 | 0.03 | 79 | 1011.3 |
| 20260505032845 | 6 | 30 | 17.7 | 25.7 | 0.00 | 0.03 | 0.03 | 78 | 1011.1 |
| 20260505031844 | 6 | 28 | 19.3 | 27.4 | 0.00 | 0.03 | 0.03 | 78 | 1011.2 |
| 20260505031345 | 6 | 27 | 19.3 | 27.4 | 0.00 | 0.03 | 0.03 | 79 | 1011.1 |
| 20260505030842 | 6 | 19 | 16.1 | 25.7 | 0.00 | 0.03 | 0.03 | 80 | 1011.1 |
| 20260505030343 | 6 | 17 | 14.5 | 22.5 | 0.00 | 0.03 | 0.03 | 80 | 1011.1 |
| 20260505025325 | 6 | 5 | 11.3 | 20.9 | 0.00 | 0.03 | 0.03 | 81 | 1011.1 |
| 20260505024825 | 6 | 9 | 9.7 | 19.3 | 0.03 | 0.03 | 0.03 | 81 | 1011.1 |
| 20260505023825 | 6 | 9 | 14.5 | 20.9 | 0.03 | 0.03 | 0.03 | 81 | 1011.0 |
| 20260505023326 | 6 | 11 | 17.7 | 22.5 | 0.03 | 0.03 | 0.03 | 80 | 1010.8 |
| 20260505022321 | 6 | 30 | 14.5 | 24.1 | 0.03 | 0.03 | 0.03 | 80 | 1011.0 |
| 20260505021820 | 6 | 17 | 14.5 | 20.9 | 0.03 | 0.03 | 0.03 | 79 | 1011.1 |
| 20260505021320 | 6 | 37 | 14.5 | 20.9 | 0.03 | 0.03 | 0.03 | 78 | 1011.0 |
| 20260505020821 | 6 | 31 | 12.9 | 22.5 | 0.03 | 0.03 | 0.03 | 78 | 1011.1 |
| 20260505020319 | 6 | 28 | 12.9 | 22.5 | 0.03 | 0.03 | 0.03 | 76 | 1011.5 |
| 20260505015817 | 6 | 11 | 14.5 | 20.9 | 0.03 | 0.03 | 0.03 | 77 | 1011.5 |
| 20260505013814 | 8 | 44 | 14.5 | 37.0 | 0.00 | 0.00 | 0.00 | 63 | 1011.2 |
| 20260505012800 | 10 | 17 | 4.8 | 17.7 | 0.00 | 0.00 | 0.00 | 54 | 1011.0 |
| 20260505011800 | 10 | 325 | 6.4 | 16.1 | 0.00 | 0.00 | 0.00 | 52 | 1011.0 |
| 20260505011301 | 10 | 319 | 4.8 | 16.1 | 0.00 | 0.00 | 0.00 | 51 | 1010.8 |
| 20260505010758 | 11 | 5 | 6.4 | 20.9 | 0.00 | 0.00 | 0.00 | 49 | 1010.6 |
| 20260505010259 | 11 | 11 | 12.9 | 30.6 | 0.00 | 0.00 | 0.00 | 48 | 1010.2 |
| 20260505005754 | 11 | 345 | 17.7 | 30.6 | 0.00 | 0.00 | 0.00 | 48 | 1010.0 |
| 20260505005254 | 11 | 5 | 19.3 | 33.8 | 0.00 | 0.00 | 0.00 | 47 | 1009.8 |
| 20260505004755 | 11 | 24 | 19.3 | 33.8 | 0.00 | 0.00 | 0.00 | 47 | 1009.6 |
| 20260505004255 | 11 | 11 | 19.3 | 27.4 | 0.00 | 0.00 | 0.00 | 47 | 1009.5 |
| 20260505003755 | 11 | 5 | 20.9 | 30.6 | 0.00 | 0.00 | 0.00 | 46 | 1009.5 |
| 20260505003254 | 11 | 13 | 19.3 | 30.6 | 0.00 | 0.00 | 0.00 | 45 | 1009.5 |
| 20260505002755 | 12 | 0 | 19.3 | 29.0 | 0.00 | 0.00 | 0.00 | 43 | 1009.2 |
| 20260505002239 | 12 | 26 | 20.9 | 30.6 | 0.00 | 0.00 | 0.00 | 44 | 1009.1 |
| 20260505001742 | 12 | 33 | 22.5 | 33.8 | 0.00 | 0.00 | 0.00 | 42 | 1009.1 |
| 20260505001239 | 12 | 20 | 24.1 | 33.8 | 0.00 | 0.00 | 0.00 | 43 | 1009.2 |
| 20260505000741 | 12 | 32 | 22.5 | 33.8 | 0.00 | 0.00 | 0.00 | 43 | 1009.1 |
| 20260504235740 | 12 | 28 | 22.5 | 37.0 | 0.00 | 0.00 | 0.00 | 43 | 1009.2 |
| 20260504235242 | 13 | 24 | 20.9 | 37.0 | 0.00 | 0.00 | 0.00 | 42 | 1009.1 |
| 20260504234737 | 13 | 49 | 20.9 | 33.8 | 0.00 | 0.00 | 0.00 | 42 | 1009.1 |
| 20260504234237 | 13 | 41 | 19.3 | 30.6 | 0.00 | 0.00 | 0.00 | 41 | 1009.2 |
| 20260504233239 | 14 | 17 | 12.9 | 29.0 | 0.00 | 0.00 | 0.00 | 39 | 1009.2 |
| 20260504232738 | 15 | 0 | 3.2 | 20.9 | 0.00 | 0.00 | 0.00 | 39 | 1009.3 |
| 20260504232238 | 15 | 345 | 0.0 | 8.0 | 0.00 | 0.00 | 0.00 | 40 | 1009.2 |
| 20260504231737 | 15 | 259 | 0.0 | 4.8 | 0.00 | 0.00 | 0.00 | 39 | 1009.1 |
| 20260504231239 | 15 | 257 | 3.2 | 11.3 | 0.00 | 0.00 | 0.00 | 39 | 1009.2 |
| 20260504230724 | 15 | 211 | 4.8 | 14.5 | 0.00 | 0.00 | 0.00 | 38 | 1009.1 |
| 20260504225217 | 14 | 259 | 9.7 | 19.3 | 0.00 | 0.00 | 0.00 | 40 | 1009.1 |
| 20260504224717 | 14 | 252 | 11.3 | 22.5 | 0.00 | 0.00 | 0.00 | 38 | 1009.2 |
| 20260504224218 | 14 | 229 | 11.3 | 22.5 | 0.00 | 0.00 | 0.00 | 40 | 1009.2 |
| 20260504223717 | 14 | 201 | 9.7 | 25.7 | 0.00 | 0.00 | 0.00 | 36 | 1009.0 |
| 20260504223216 | 14 | 166 | 9.7 | 25.7 | 0.00 | 0.00 | 0.00 | 37 | 1009.1 |
| 20260504222716 | 14 | 275 | 6.4 | 24.1 | 0.00 | 0.00 | 0.00 | 39 | 1009.1 |
| 20260504222217 | 14 | 233 | 4.8 | 24.1 | 0.00 | 0.00 | 0.00 | 38 | 1009.2 |
| 20260504220638 | 15 | 5 | 12.9 | 25.7 | 0.00 | 0.00 | 0.00 | 36 | 1009.2 |
| 20260504220124 | 15 | 22 | 12.9 | 25.7 | 0.00 | 0.00 | 0.00 | 34 | 1009.1 |
| 20260504215613 | 15 | 350 | 14.5 | 22.5 | 0.00 | 0.00 | 0.00 | 35 | 1009.0 |
| 20260504215111 | 15 | 26 | 16.1 | 37.0 | 0.00 | 0.00 | 0.00 | 32 | 1009.0 |
| 20260504214111 | 15 | 58 | 6.4 | 25.7 | 0.00 | 0.00 | 0.00 | 31 | 1008.6 |
| 20260504213611 | 16 | 51 | 1.6 | 11.3 | 0.00 | 0.00 | 0.00 | 28 | 1008.6 |
| 20260504212613 | 16 | 31 | 0.0 | 0.0 | 0.00 | 0.00 | 0.00 | 28 | 1008.5 |
| 20260504212110 | 16 | 31 | 0.0 | 6.4 | 0.00 | 0.00 | 0.00 | 27 | 1008.6 |
| 20260504211556 | 16 | 30 | 1.6 | 8.0 | 0.00 | 0.00 | 0.00 | 27 | 1008.5 |
| 20260504211042 | 17 | 51 | 1.6 | 11.3 | 0.00 | 0.00 | 0.00 | 28 | 1008.5 |
| 20260504210530 | 17 | 240 | 3.2 | 12.9 | 0.00 | 0.00 | 0.00 | 28 | 1008.6 |
| 20260504205512 | 17 | 115 | 1.6 | 16.1 | 0.00 | 0.00 | 0.00 | 26 | 1008.6 |
| 20260504205003 | 17 | 138 | 1.6 | 9.7 | 0.00 | 0.00 | 0.00 | 29 | 1008.8 |
| 20260504204453 | 17 | 146 | 3.2 | 11.3 | 0.00 | 0.00 | 0.00 | 28 | 1008.7 |
| 20260504202951 | 16 | 219 | 1.6 | 8.0 | 0.00 | 0.00 | 0.00 | 27 | 1009.2 |
| 20260504202450 | 17 | 196 | 0.0 | 1.6 | 0.00 | 0.00 | 0.00 | 27 | 1009.3 |
| 20260504201948 | 17 | 196 | 0.0 | 6.4 | 0.00 | 0.00 | 0.00 | 26 | 1009.3 |
| 20260504201447 | 17 | 196 | 1.6 | 14.5 | 0.00 | 0.00 | 0.00 | 27 | 1009.3 |
| 20260504200948 | 16 | 292 | 4.8 | 19.3 | 0.00 | 0.00 | 0.00 | 27 | 1009.3 |
| 20260504200435 | 16 | 5 | 6.4 | 19.3 | 0.00 | 0.00 | 0.00 | 27 | 1009.5 |
| 20260504195927 | 17 | 332 | 6.4 | 19.3 | 0.00 | 0.00 | 0.00 | 29 | 1009.5 |
| 20260504195427 | 16 | 348 | 4.8 | 19.3 | 0.00 | 0.00 | 0.00 | 29 | 1009.3 |
| 20260504194929 | 16 | 319 | 1.6 | 14.5 | 0.00 | 0.00 | 0.00 | 28 | 1009.5 |
| 20260504193925 | 16 | 350 | 1.6 | 9.7 | 0.00 | 0.00 | 0.00 | 25 | 1009.3 |
| 20260504193426 | 17 | 348 | 1.6 | 9.7 | 0.00 | 0.00 | 0.00 | 25 | 1009.5 |
| 20260504192926 | 17 | 50 | 3.2 | 17.7 | 0.00 | 0.00 | 0.00 | 25 | 1009.5 |
| 20260504192414 | 17 | 150 | 6.4 | 19.3 | 0.00 | 0.00 | 0.00 | 25 | 1009.5 |
| 20260504191912 | 17 | 248 | 6.4 | 19.3 | 0.00 | 0.00 | 0.00 | 24 | 1009.5 |
| 20260504190911 | 17 | 148 | 4.8 | 16.1 | 0.00 | 0.00 | 0.00 | 25 | 1009.5 |
| 20260504190410 | 17 | 220 | 9.7 | 19.3 | 0.00 | 0.00 | 0.00 | 23 | 1009.5 |
| 20260504185907 | 18 | 213 | 8.0 | 20.9 | 0.00 | 0.00 | 0.00 | 25 | 1009.7 |
| 20260504185409 | 18 | 232 | 3.2 | 19.3 | 0.00 | 0.00 | 0.00 | 27 | 1009.7 |
| 20260504184908 | 17 | 248 | 4.8 | 20.9 | 0.00 | 0.00 | 0.00 | 27 | 1009.7 |
| 20260504184407 | 17 | 309 | 4.8 | 20.9 | 0.00 | 0.00 | 0.00 | 27 | 1009.8 |
| 20260504183853 | 17 | 246 | 3.2 | 16.1 | 0.00 | 0.00 | 0.00 | 26 | 1010.2 |
| 20260504183342 | 17 | 271 | 6.4 | 20.9 | 0.00 | 0.00 | 0.00 | 27 | 1010.2 |
| 20260504182832 | 16 | 238 | 6.4 | 20.9 | 0.00 | 0.00 | 0.00 | 31 | 1010.3 |
| 20260504182330 | 16 | 250 | 4.8 | 14.5 | 0.00 | 0.00 | 0.00 | 28 | 1010.3 |
| 20260504181829 | 16 | 236 | 4.8 | 14.5 | 0.00 | 0.00 | 0.00 | 27 | 1010.3 |
| 20260504181326 | 15 | 247 | 8.0 | 20.9 | 0.00 | 0.00 | 0.00 | 29 | 1010.3 |
| 20260504180827 | 15 | 201 | 12.9 | 25.7 | 0.00 | 0.00 | 0.00 | 30 | 1010.3 |
| 20260504180328 | 15 | 180 | 11.3 | 35.4 | 0.00 | 0.00 | 0.00 | 30 | 1010.3 |
| 20260504175827 | 16 | 221 | 4.8 | 35.4 | 0.00 | 0.00 | 0.00 | 29 | 1010.6 |
| 20260504175328 | 17 | 300 | 3.2 | 11.3 | 0.00 | 0.00 | 0.00 | 30 | 1010.6 |
| 20260504174827 | 17 | 341 | 6.4 | 19.3 | 0.00 | 0.00 | 0.00 | 29 | 1010.7 |
| 20260504173823 | 18 | 12 | 8.0 | 20.9 | 0.00 | 0.00 | 0.00 | 30 | 1011.0 |
| 20260504173323 | 18 | 329 | 6.4 | 20.9 | 0.00 | 0.00 | 0.00 | 29 | 1011.1 |
| 20260504172824 | 17 | 336 | 6.4 | 22.5 | 0.00 | 0.00 | 0.00 | 34 | 1011.1 |
| 20260504172323 | 17 | 311 | 9.7 | 24.1 | 0.00 | 0.00 | 0.00 | 33 | 1011.3 |
| 20260504171823 | 17 | 302 | 8.0 | 24.1 | 0.00 | 0.00 | 0.00 | 33 | 1011.2 |
| 20260504171324 | 17 | 259 | 6.4 | 17.7 | 0.00 | 0.00 | 0.00 | 33 | 1011.2 |
| 20260504170823 | 17 | 284 | 8.0 | 27.4 | 0.00 | 0.00 | 0.00 | 34 | 1011.3 |
| 20260504170324 | 17 | 300 | 9.7 | 29.0 | 0.00 | 0.00 | 0.00 | 34 | 1011.3 |
| 20260504160309 | 15 | 296 | 11.3 | 29.0 | 0.00 | 0.00 | 0.00 | 39 | 1011.9 |
| 20260504150739 | 14 | 319 | 8.0 | 19.3 | 0.00 | 0.00 | 0.00 | 37 | 1011.8 |
| 20260504150238 | 13 | 276 | 8.0 | 29.0 | 0.00 | 0.00 | 0.00 | 38 | 1011.9 |
| 20260504140714 | 12 | 327 | 11.3 | 22.5 | 0.00 | 0.00 | 0.00 | 38 | 1011.7 |
| 20260504140215 | 12 | 304 | 9.7 | 20.9 | 0.00 | 0.00 | 0.00 | 39 | 1011.6 |
| 20260504130704 | 10 | 324 | 3.2 | 14.5 | 0.00 | 0.00 | 0.00 | 41 | 1011.6 |
| 20260504120134 | 7 | 315 | 3.2 | 11.3 | 0.00 | 0.00 | 0.00 | 43 | 1011.6 |
| 20260504110605 | 8 | 312 | 3.2 | 12.9 | 0.00 | 0.00 | 0.00 | 41 | 1011.8 |
| 20260504110104 | 8 | 309 | 4.8 | 12.9 | 0.00 | 0.00 | 0.00 | 41 | 1011.8 |
| 20260504100559 | 7 | 309 | 1.6 | 11.3 | 0.00 | 0.00 | 0.00 | 44 | 1011.8 |
| 20260504080951 | 6 | 298 | 0.0 | 3.2 | 0.00 | 0.00 | 0.00 | 47 | 1012.6 |
| 20260504080447 | 6 | 306 | 0.0 | 3.2 | 0.00 | 0.00 | 0.00 | 48 | 1012.6 |